This is the latest recevied weather packets stored in our database for station/object OE-11307. If no packets are shown the sender has not sent any weather packets the latest 10 day(s).
| Time | Temp. | Humidity | Pressure | Rain* | Wind** | Luminosity | Snow |
|---|---|---|---|---|---|---|---|
| 1787923514 | 20.56° C | 82% | 851.6 hPa | 2.03 mm | - | 794 W/m² | - |
| 1787922685 | 19.44° C | 82% | 851.6 hPa | 2.29 mm | - | 794 W/m² | - |
| 1787922314 | 17.78° C | 87% | 851.9 hPa | 2.79 mm | - | 630 W/m² | - |
| 1787921714 | 17.22° C | 90% | 852.6 hPa | 2.79 mm | - | 139 W/m² | - |
| 1787920886 | 17.22° C | 92% | 853.4 hPa | 2.54 mm | - | 158 W/m² | - |
| 1787920514 | 17.22° C | 91% | 853.7 hPa | 2.29 mm | - | 50 W/m² | - |
| 1787919914 | 16.67° C | 90% | 853.8 hPa | 1.27 mm | - | 25 W/m² | - |
| 1787919086 | 17.78° C | 84% | 853.5 hPa | 0.51 mm | - | 44 W/m² | - |
| 1787918713 | 18.33° C | 78% | 852.7 hPa | 0.51 mm | - | 76 W/m² | - |
| 1787918113 | 20.56° C | 64% | 852.2 hPa | 0 mm | - | 63 W/m² | - |
| 1787917286 | 21.11° C | 68% | 851.4 hPa | 0 mm | - | 50 W/m² | - |
| 1787916914 | 21.67° C | 67% | 851 hPa | 0 mm | - | 76 W/m² | - |
| 1787916314 | 21.67° C | 66% | 850.9 hPa | 0 mm | - | 151 W/m² | - |
| 1787915486 | 22.22° C | 67% | 851.1 hPa | 0 mm | - | 164 W/m² | - |
| 1787915114 | 22.22° C | 65% | 851.2 hPa | 0 mm | - | 202 W/m² | - |
| 1787914514 | 22.22° C | 66% | 851.4 hPa | 0 mm | - | 195 W/m² | - |
| 1787913687 | 21.67° C | 69% | 851.4 hPa | 0 mm | - | 170 W/m² | - |
| 1787913314 | 21.67° C | 66% | 851.4 hPa | 0 mm | - | 158 W/m² | - |
| 1787912714 | 22.22° C | 65% | 851.5 hPa | 0 mm | - | 82 W/m² | - |
| 1787911887 | 22.22° C | 66% | 851.5 hPa | 0 mm | - | 101 W/m² | - |
| 1787911514 | 22.78° C | 59% | 851.6 hPa | 0 mm | - | 176 W/m² | - |
| 1787910913 | 22.78° C | 62% | 851.6 hPa | 0 mm | - | 214 W/m² | - |
| 1787910087 | 23.33° C | 55% | 851.5 hPa | 0 mm | - | 145 W/m² | - |
| 1787909713 | 22.78° C | 58% | 851.1 hPa | 0 mm | - | 76 W/m² | - |
| 1787909114 | 23.33° C | 56% | 851 hPa | 0 mm | - | 139 W/m² | - |
* Rain latest hour (hover to see other rain measurements)
** Current wind speed in m/s (hover to see current wind gust speed)